createdAt,value
2023-03-19T00:00:07.498Z,439.00
2023-03-19T00:01:07.482Z,439.00
2023-03-19T00:02:16.997Z,439.00
2023-03-19T00:03:08.504Z,438.00
2023-03-19T00:04:07.454Z,436.00
2023-03-19T00:05:07.424Z,437.00
2023-03-19T00:06:07.379Z,434.00
2023-03-19T00:07:07.369Z,434.00
2023-03-19T00:08:07.316Z,435.00
2023-03-19T00:09:07.380Z,431.00
2023-03-19T00:10:07.331Z,434.00
2023-03-19T00:11:07.343Z,436.00
2023-03-19T00:12:07.263Z,438.00
2023-03-19T00:13:07.260Z,442.00
2023-03-19T00:14:07.225Z,441.00
2023-03-19T00:15:07.211Z,442.00
2023-03-19T00:16:07.284Z,442.00
2023-03-19T00:17:07.196Z,441.00
2023-03-19T00:18:07.173Z,443.00
2023-03-19T00:19:07.115Z,440.00
2023-03-19T00:20:07.960Z,444.00
2023-03-19T00:21:07.063Z,442.00
2023-03-19T00:22:07.028Z,441.00
2023-03-19T00:23:07.051Z,441.00
2023-03-19T00:24:07.009Z,441.00
2023-03-19T00:25:07.015Z,440.00
2023-03-19T00:26:06.939Z,442.00
2023-03-19T00:27:06.991Z,440.00
2023-03-19T00:28:06.916Z,439.00
2023-03-19T00:29:06.892Z,440.00
2023-03-19T00:30:06.937Z,440.00
2023-03-19T00:31:06.883Z,439.00
2023-03-19T00:32:06.814Z,439.00
2023-03-19T00:33:06.926Z,439.00
2023-03-19T00:34:06.785Z,438.00
2023-03-19T00:35:06.851Z,436.00
2023-03-19T00:36:06.795Z,432.00
2023-03-19T00:37:06.732Z,432.00
2023-03-19T00:38:06.712Z,431.00
2023-03-19T00:39:06.717Z,433.00
2023-03-19T00:40:06.729Z,431.00
2023-03-19T00:41:06.674Z,430.00
2023-03-19T00:42:06.707Z,434.00
2023-03-19T00:43:06.602Z,434.00
2023-03-19T00:44:06.568Z,437.00
2023-03-19T00:45:06.598Z,437.00
2023-03-19T00:46:06.604Z,437.00
2023-03-19T00:47:06.544Z,437.00
2023-03-19T00:48:06.512Z,438.00
2023-03-19T00:49:06.458Z,441.00
2023-03-19T00:50:06.455Z,442.00
2023-03-19T00:51:06.457Z,443.00
2023-03-19T00:52:06.455Z,441.00
2023-03-19T00:53:06.441Z,441.00
2023-03-19T00:54:06.367Z,443.00
2023-03-19T00:55:06.339Z,444.00
2023-03-19T00:56:06.328Z,443.00
2023-03-19T00:57:06.296Z,440.00
2023-03-19T00:58:06.310Z,440.00
2023-03-19T00:59:06.266Z,444.00
2023-03-19T01:00:06.292Z,445.00
2023-03-19T01:01:06.267Z,445.00
2023-03-19T01:02:06.221Z,443.00
2023-03-19T01:03:06.208Z,444.00
2023-03-19T01:04:06.270Z,444.00
2023-03-19T01:05:06.183Z,445.00
2023-03-19T01:06:06.165Z,445.00
2023-03-19T01:07:06.107Z,445.00
2023-03-19T01:08:06.094Z,444.00
2023-03-19T01:09:06.136Z,441.00
2023-03-19T01:10:06.135Z,440.00
2023-03-19T01:11:06.072Z,438.00
2023-03-19T01:12:06.094Z,437.00
2023-03-19T01:13:05.998Z,441.00
2023-03-19T01:14:05.976Z,442.00
2023-03-19T01:15:06.022Z,443.00
2023-03-19T01:16:05.947Z,444.00
2023-03-19T01:17:05.951Z,444.00
2023-03-19T01:18:05.931Z,445.00
2023-03-19T01:19:05.871Z,445.00
2023-03-19T01:20:05.931Z,446.00
2023-03-19T01:21:05.838Z,445.00
2023-03-19T01:22:05.881Z,444.00
2023-03-19T01:23:05.792Z,442.00
2023-03-19T01:24:05.762Z,441.00
2023-03-19T01:25:05.733Z,443.00
2023-03-19T01:26:05.770Z,444.00
2023-03-19T01:27:05.731Z,442.00
2023-03-19T01:28:05.712Z,440.00
2023-03-19T01:29:05.688Z,439.00
2023-03-19T01:30:05.638Z,441.00
2023-03-19T01:31:05.688Z,443.00
2023-03-19T01:32:05.619Z,443.00
2023-03-19T01:33:05.714Z,444.00
2023-03-19T01:34:05.611Z,443.00
2023-03-19T01:35:05.616Z,433.00
2023-03-19T01:36:05.696Z,434.00
2023-03-19T01:37:05.524Z,437.00
2023-03-19T01:38:05.515Z,438.00
2023-03-19T01:39:05.508Z,441.00
2023-03-19T01:40:05.468Z,443.00
2023-03-19T01:41:05.450Z,446.00
2023-03-19T01:42:05.463Z,449.00
2023-03-19T01:43:05.411Z,445.00
2023-03-19T01:44:05.409Z,444.00
2023-03-19T01:45:05.369Z,445.00
2023-03-19T01:46:05.387Z,446.00
2023-03-19T01:47:05.330Z,444.00
2023-03-19T01:48:05.321Z,442.00
2023-03-19T01:49:05.326Z,442.00
2023-03-19T01:50:05.290Z,441.00
2023-03-19T01:51:05.251Z,439.00
2023-03-19T01:52:05.236Z,440.00
2023-03-19T01:53:05.203Z,441.00
2023-03-19T01:54:05.188Z,441.00
2023-03-19T01:55:05.173Z,442.00
2023-03-19T01:56:05.156Z,441.00
2023-03-19T01:57:05.138Z,437.00
2023-03-19T01:58:05.101Z,437.00
2023-03-19T01:59:05.137Z,436.00
2023-03-19T02:00:05.121Z,437.00
2023-03-19T02:01:05.443Z,437.00
2023-03-19T02:02:05.034Z,437.00
2023-03-19T02:03:05.017Z,437.00
2023-03-19T02:04:05.036Z,437.00
2023-03-19T02:05:04.977Z,437.00
2023-03-19T02:06:04.948Z,438.00
2023-03-19T02:07:04.915Z,437.00
2023-03-19T02:08:04.916Z,438.00
2023-03-19T02:09:04.905Z,440.00
2023-03-19T02:10:04.913Z,437.00
2023-03-19T02:11:04.859Z,440.00
2023-03-19T02:12:04.893Z,442.00
2023-03-19T02:13:04.886Z,444.00
2023-03-19T02:14:04.816Z,444.00
2023-03-19T02:15:04.788Z,443.00
2023-03-19T02:16:04.888Z,443.00
2023-03-19T02:17:04.749Z,443.00
2023-03-19T02:18:04.755Z,442.00
2023-03-19T02:19:04.758Z,442.00
2023-03-19T02:20:04.734Z,442.00
2023-03-19T02:21:04.745Z,443.00
2023-03-19T02:22:04.734Z,444.00
2023-03-19T02:23:04.675Z,445.00
2023-03-19T02:24:04.680Z,445.00
2023-03-19T02:25:04.674Z,444.00
2023-03-19T02:26:05.453Z,442.00
2023-03-19T02:27:04.685Z,440.00
2023-03-19T02:28:04.619Z,440.00
2023-03-19T02:29:04.622Z,440.00
2023-03-19T02:30:04.565Z,440.00
2023-03-19T02:31:04.588Z,442.00
2023-03-19T02:32:04.595Z,443.00
2023-03-19T02:33:04.584Z,443.00
2023-03-19T02:34:04.497Z,445.00
2023-03-19T02:35:04.507Z,446.00
2023-03-19T02:36:04.498Z,446.00
2023-03-19T02:37:04.554Z,446.00
2023-03-19T02:38:04.494Z,450.00
2023-03-19T02:39:04.412Z,448.00
2023-03-19T02:40:04.359Z,445.00
2023-03-19T02:41:04.356Z,445.00
2023-03-19T02:42:04.343Z,443.00
2023-03-19T02:43:04.315Z,444.00
2023-03-19T02:44:04.305Z,446.00
2023-03-19T02:45:04.316Z,445.00
2023-03-19T02:46:04.255Z,445.00
2023-03-19T02:47:04.280Z,444.00
2023-03-19T02:48:04.233Z,444.00
2023-03-19T02:49:04.213Z,447.00
2023-03-19T02:50:04.192Z,450.00
2023-03-19T02:51:04.163Z,452.00
2023-03-19T02:52:04.160Z,444.00
2023-03-19T02:53:04.116Z,440.00
2023-03-19T02:54:04.112Z,440.00
2023-03-19T02:55:04.135Z,442.00
2023-03-19T02:56:04.073Z,444.00
2023-03-19T02:57:04.035Z,444.00
2023-03-19T02:58:04.035Z,446.00
2023-03-19T02:59:04.011Z,446.00
2023-03-19T03:00:03.987Z,448.00
2023-03-19T03:01:04.058Z,447.00
2023-03-19T03:02:04.097Z,447.00
2023-03-19T03:03:03.963Z,448.00
2023-03-19T03:04:03.945Z,447.00
2023-03-19T03:05:03.936Z,446.00
2023-03-19T03:06:03.913Z,446.00
2023-03-19T03:07:03.942Z,444.00
2023-03-19T03:08:03.894Z,444.00
2023-03-19T03:09:03.937Z,440.00
2023-03-19T03:10:03.920Z,439.00
2023-03-19T03:11:03.865Z,444.00
2023-03-19T03:12:03.962Z,444.00
2023-03-19T03:13:03.831Z,445.00
2023-03-19T03:14:03.892Z,441.00
2023-03-19T03:15:03.809Z,440.00
2023-03-19T03:16:03.809Z,439.00
2023-03-19T03:17:03.804Z,437.00
2023-03-19T03:18:03.794Z,437.00
2023-03-19T03:19:03.764Z,436.00
2023-03-19T03:20:03.782Z,435.00
2023-03-19T03:21:03.717Z,434.00
2023-03-19T03:22:03.738Z,434.00
2023-03-19T03:23:03.696Z,436.00
2023-03-19T03:24:03.706Z,436.00
2023-03-19T03:25:03.689Z,438.00
2023-03-19T03:26:03.670Z,441.00
2023-03-19T03:27:03.644Z,440.00
2023-03-19T03:28:03.671Z,439.00
2023-03-19T03:29:03.630Z,439.00
2023-03-19T03:30:03.649Z,439.00
2023-03-19T03:31:03.619Z,438.00
2023-03-19T03:32:03.572Z,441.00
2023-03-19T03:33:03.649Z,440.00
2023-03-19T03:34:03.575Z,440.00
2023-03-19T03:35:03.649Z,441.00
2023-03-19T03:36:03.529Z,442.00
2023-03-19T03:37:03.579Z,442.00
2023-03-19T03:38:03.512Z,442.00
2023-03-19T03:39:03.517Z,442.00
2023-03-19T03:40:03.521Z,444.00
2023-03-19T03:41:03.506Z,446.00
2023-03-19T03:42:03.467Z,445.00
2023-03-19T03:43:03.471Z,445.00
2023-03-19T03:44:03.467Z,446.00
2023-03-19T03:45:03.456Z,444.00
2023-03-19T03:46:03.468Z,441.00
2023-03-19T03:47:03.486Z,438.00
2023-03-19T03:48:03.417Z,438.00
2023-03-19T03:49:03.493Z,438.00
2023-03-19T03:50:03.420Z,436.00
2023-03-19T03:51:03.437Z,437.00
2023-03-19T03:52:03.442Z,438.00
2023-03-19T03:53:03.407Z,435.00
2023-03-19T03:54:03.420Z,432.00
2023-03-19T03:55:03.427Z,434.00
2023-03-19T03:56:03.415Z,433.00
2023-03-19T03:57:03.815Z,434.00
2023-03-19T03:58:04.032Z,435.00
2023-03-19T03:59:03.411Z,436.00
2023-03-19T04:00:03.349Z,436.00
2023-03-19T04:01:03.409Z,436.00
2023-03-19T04:02:03.417Z,432.00
2023-03-19T04:03:03.367Z,434.00
2023-03-19T04:04:03.337Z,434.00
2023-03-19T04:05:03.316Z,434.00
2023-03-19T04:06:03.313Z,432.00
2023-03-19T04:07:03.358Z,428.00
2023-03-19T04:08:03.342Z,429.00
2023-03-19T04:09:03.351Z,435.00
2023-03-19T04:10:03.318Z,438.00
2023-03-19T04:11:03.293Z,439.00
2023-03-19T04:12:03.324Z,435.00
2023-03-19T04:13:03.318Z,435.00
2023-03-19T04:14:03.364Z,436.00
2023-03-19T04:15:03.265Z,433.00
2023-03-19T04:16:03.271Z,433.00
2023-03-19T04:17:03.277Z,431.00
2023-03-19T04:18:03.266Z,434.00
2023-03-19T04:19:03.325Z,436.00
2023-03-19T04:20:03.260Z,438.00
2023-03-19T04:21:03.261Z,440.00
2023-03-19T04:22:03.259Z,440.00
2023-03-19T04:23:03.259Z,440.00
2023-03-19T04:24:03.236Z,440.00
2023-03-19T04:25:03.235Z,441.00
2023-03-19T04:26:03.212Z,443.00
2023-03-19T04:27:03.225Z,442.00
2023-03-19T04:28:03.196Z,440.00
2023-03-19T04:29:03.235Z,443.00
2023-03-19T04:30:03.184Z,442.00
2023-03-19T04:31:03.219Z,444.00
2023-03-19T04:32:03.160Z,444.00
2023-03-19T04:33:03.165Z,443.00
2023-03-19T04:34:03.177Z,443.00
2023-03-19T04:35:03.113Z,440.00
2023-03-19T04:36:03.157Z,439.00
2023-03-19T04:37:03.201Z,442.00
2023-03-19T04:38:03.542Z,442.00
2023-03-19T04:39:03.128Z,442.00
2023-03-19T04:40:03.065Z,441.00
2023-03-19T04:41:03.037Z,439.00
2023-03-19T04:42:03.042Z,442.00
2023-03-19T04:43:03.039Z,442.00
2023-03-19T04:44:03.010Z,445.00
2023-03-19T04:45:03.046Z,445.00
2023-03-19T04:46:03.055Z,442.00
2023-03-19T04:47:02.998Z,439.00
2023-03-19T04:48:03.009Z,440.00
2023-03-19T04:49:03.008Z,441.00
2023-03-19T04:50:03.009Z,441.00
2023-03-19T04:51:02.939Z,440.00
2023-03-19T04:52:02.915Z,441.00
2023-03-19T04:53:02.942Z,443.00
2023-03-19T04:54:02.944Z,438.00
2023-03-19T04:55:02.887Z,439.00
2023-03-19T04:56:02.891Z,437.00
2023-03-19T04:57:02.853Z,437.00
2023-03-19T04:58:02.875Z,438.00
2023-03-19T04:59:02.853Z,436.00
2023-03-19T05:00:02.893Z,438.00
2023-03-19T05:01:02.856Z,438.00
2023-03-19T05:02:02.874Z,441.00
2023-03-19T05:03:02.871Z,443.00
2023-03-19T05:04:02.862Z,441.00
2023-03-19T05:05:02.803Z,441.00
2023-03-19T05:06:02.809Z,440.00
2023-03-19T05:07:02.796Z,437.00
2023-03-19T05:08:02.786Z,439.00
2023-03-19T05:09:02.768Z,436.00
2023-03-19T05:10:02.784Z,436.00
2023-03-19T05:11:02.805Z,436.00
2023-03-19T05:12:02.754Z,439.00
2023-03-19T05:13:02.751Z,441.00
2023-03-19T05:14:02.781Z,441.00
2023-03-19T05:15:02.734Z,440.00
2023-03-19T05:16:02.784Z,438.00
2023-03-19T05:17:02.701Z,436.00
2023-03-19T05:18:02.689Z,437.00
2023-03-19T05:19:02.681Z,436.00
2023-03-19T05:20:02.673Z,434.00
2023-03-19T05:21:02.673Z,433.00
2023-03-19T05:22:02.648Z,437.00
2023-03-19T05:23:02.682Z,441.00
2023-03-19T05:24:02.653Z,442.00
2023-03-19T05:25:02.656Z,442.00
2023-03-19T05:26:02.650Z,443.00
2023-03-19T05:27:02.611Z,441.00
2023-03-19T05:28:02.655Z,443.00
2023-03-19T05:29:02.704Z,442.00
2023-03-19T05:30:02.774Z,442.00
2023-03-19T05:31:02.696Z,445.00
2023-03-19T05:32:02.657Z,447.00
2023-03-19T05:33:03.592Z,448.00
2023-03-19T05:34:02.630Z,446.00
2023-03-19T05:35:02.670Z,445.00
2023-03-19T05:36:02.748Z,447.00
2023-03-19T05:37:03.093Z,448.00
2023-03-19T05:38:02.747Z,447.00
2023-03-19T05:39:02.619Z,447.00
2023-03-19T05:40:02.721Z,445.00
2023-03-19T05:41:02.593Z,444.00
2023-03-19T05:42:02.572Z,444.00
2023-03-19T05:43:03.071Z,445.00
2023-03-19T05:44:02.531Z,448.00
2023-03-19T05:45:02.566Z,449.00
2023-03-19T05:46:02.666Z,444.00
2023-03-19T05:47:02.678Z,443.00
2023-03-19T05:48:02.635Z,445.00
2023-03-19T05:49:02.439Z,446.00
2023-03-19T05:50:02.427Z,444.00
2023-03-19T05:51:02.436Z,445.00
2023-03-19T05:52:02.387Z,443.00
2023-03-19T05:53:02.426Z,445.00
2023-03-19T05:54:02.414Z,446.00
2023-03-19T05:55:02.388Z,449.00
2023-03-19T05:56:02.367Z,448.00
2023-03-19T05:57:03.394Z,446.00
2023-03-19T05:58:02.428Z,447.00
2023-03-19T05:59:02.387Z,448.00
2023-03-19T06:00:02.376Z,449.00
2023-03-19T06:01:02.373Z,449.00
2023-03-19T06:02:02.374Z,447.00
2023-03-19T06:03:02.450Z,444.00
2023-03-19T06:04:04.307Z,439.00
2023-03-19T06:05:02.326Z,439.00
2023-03-19T06:06:02.330Z,440.00
2023-03-19T06:07:02.327Z,439.00
2023-03-19T06:08:02.719Z,439.00
2023-03-19T06:09:02.319Z,436.00
2023-03-19T06:10:02.296Z,437.00
2023-03-19T06:11:02.352Z,438.00
2023-03-19T06:12:02.308Z,438.00
2023-03-19T06:13:02.272Z,440.00
2023-03-19T06:14:02.248Z,441.00
2023-03-19T06:15:02.249Z,440.00
2023-03-19T06:16:02.260Z,439.00
2023-03-19T06:17:02.244Z,442.00
2023-03-19T06:18:02.223Z,441.00
2023-03-19T06:19:02.752Z,441.00
2023-03-19T06:20:02.218Z,439.00
2023-03-19T06:21:02.194Z,438.00
2023-03-19T06:22:02.192Z,437.00
2023-03-19T06:23:02.181Z,436.00
2023-03-19T06:24:02.175Z,436.00
2023-03-19T06:25:02.210Z,436.00
2023-03-19T06:26:02.181Z,437.00
2023-03-19T06:27:02.167Z,433.00
2023-03-19T06:28:02.169Z,432.00
2023-03-19T06:29:02.179Z,433.00
2023-03-19T06:30:02.151Z,437.00
2023-03-19T06:31:02.245Z,439.00
2023-03-19T06:32:02.206Z,438.00
2023-03-19T06:33:02.164Z,440.00
2023-03-19T06:34:02.146Z,440.00
2023-03-19T06:35:02.124Z,441.00
2023-03-19T06:36:02.295Z,439.00
2023-03-19T06:37:02.221Z,440.00
2023-03-19T06:38:02.155Z,441.00
2023-03-19T06:39:02.182Z,441.00
2023-03-19T06:40:02.156Z,441.00
2023-03-19T06:41:02.137Z,441.00
2023-03-19T06:42:02.162Z,442.00
2023-03-19T06:43:02.175Z,443.00
2023-03-19T06:44:02.135Z,440.00
2023-03-19T06:45:02.145Z,442.00
2023-03-19T06:46:02.180Z,442.00
2023-03-19T06:47:02.120Z,441.00
2023-03-19T06:48:02.139Z,442.00
2023-03-19T06:49:02.159Z,443.00
2023-03-19T06:50:02.109Z,442.00
2023-03-19T06:51:02.121Z,444.00
2023-03-19T06:52:02.115Z,445.00
2023-03-19T06:53:02.070Z,446.00
2023-03-19T06:54:02.090Z,448.00
2023-03-19T06:55:02.069Z,447.00
2023-03-19T06:56:02.051Z,449.00
2023-03-19T06:57:02.044Z,448.00
2023-03-19T06:58:02.044Z,447.00
2023-03-19T06:59:02.090Z,446.00
2023-03-19T07:00:02.036Z,446.00
2023-03-19T07:01:02.103Z,446.00
2023-03-19T07:02:02.088Z,447.00
2023-03-19T07:03:02.028Z,448.00
2023-03-19T07:04:02.118Z,447.00
2023-03-19T07:05:02.046Z,449.00
2023-03-19T07:06:02.012Z,449.00
2023-03-19T07:07:01.995Z,449.00
2023-03-19T07:08:02.045Z,447.00
2023-03-19T07:09:01.997Z,446.00
2023-03-19T07:10:01.959Z,443.00
2023-03-19T07:11:01.951Z,446.00
2023-03-19T07:12:01.964Z,447.00
2023-03-19T07:13:01.969Z,447.00
2023-03-19T07:14:01.942Z,447.00
2023-03-19T07:15:01.939Z,444.00
2023-03-19T07:16:01.946Z,446.00
2023-03-19T07:17:01.920Z,447.00
2023-03-19T07:18:01.913Z,447.00
2023-03-19T07:19:01.925Z,446.00
2023-03-19T07:20:01.950Z,446.00
2023-03-19T07:21:01.907Z,447.00
2023-03-19T07:22:01.875Z,443.00
2023-03-19T07:23:01.854Z,441.00
2023-03-19T07:24:01.860Z,443.00
2023-03-19T07:25:01.902Z,441.00
2023-03-19T07:26:01.868Z,442.00
2023-03-19T07:27:01.858Z,440.00
2023-03-19T07:28:01.853Z,438.00
2023-03-19T07:29:01.900Z,442.00
2023-03-19T07:30:01.864Z,443.00
2023-03-19T07:31:01.840Z,446.00
2023-03-19T07:32:01.860Z,448.00
2023-03-19T07:33:01.892Z,445.00
2023-03-19T07:34:01.841Z,447.00
2023-03-19T07:35:01.811Z,444.00
2023-03-19T07:36:01.905Z,443.00
2023-03-19T07:37:01.821Z,445.00
2023-03-19T07:38:01.800Z,444.00
2023-03-19T07:39:01.823Z,445.00
2023-03-19T07:40:01.813Z,445.00
2023-03-19T07:41:03.016Z,446.00
2023-03-19T07:42:01.813Z,449.00
2023-03-19T07:43:01.806Z,449.00
2023-03-19T07:44:01.801Z,448.00
2023-03-19T07:45:01.816Z,445.00
2023-03-19T07:46:01.798Z,444.00
2023-03-19T07:47:01.777Z,440.00
2023-03-19T07:48:01.753Z,439.00
2023-03-19T07:49:01.739Z,439.00
2023-03-19T07:50:01.764Z,438.00
2023-03-19T07:51:01.752Z,438.00
2023-03-19T07:52:01.765Z,440.00
2023-03-19T07:53:01.733Z,442.00
2023-03-19T07:54:01.729Z,445.00
2023-03-19T07:55:01.733Z,444.00
2023-03-19T07:56:01.729Z,444.00
2023-03-19T07:57:01.757Z,441.00
2023-03-19T07:58:01.750Z,440.00
2023-03-19T07:59:01.760Z,438.00
2023-03-19T08:00:01.740Z,439.00
2023-03-19T08:01:01.736Z,439.00
2023-03-19T08:02:01.767Z,439.00
2023-03-19T08:03:01.735Z,438.00
2023-03-19T08:04:01.732Z,437.00
2023-03-19T08:05:01.709Z,437.00
2023-03-19T08:06:01.704Z,437.00
2023-03-19T08:07:01.697Z,438.00
2023-03-19T08:08:01.717Z,437.00
2023-03-19T08:09:01.685Z,436.00
2023-03-19T08:10:01.707Z,435.00
2023-03-19T08:11:01.707Z,433.00
2023-03-19T08:12:01.665Z,433.00
2023-03-19T08:13:01.674Z,432.00
2023-03-19T08:14:01.672Z,434.00
2023-03-19T08:15:01.683Z,432.00
2023-03-19T08:16:01.656Z,428.00
2023-03-19T08:17:02.043Z,427.00
2023-03-19T08:18:01.659Z,428.00
2023-03-19T08:19:01.645Z,430.00
2023-03-19T08:20:01.655Z,432.00
2023-03-19T08:21:01.628Z,437.00
2023-03-19T08:22:01.637Z,440.00
2023-03-19T08:23:01.624Z,442.00
2023-03-19T08:24:03.802Z,441.00
2023-03-19T08:25:01.634Z,438.00
2023-03-19T08:26:01.596Z,439.00
2023-03-19T08:27:01.586Z,439.00
2023-03-19T08:28:01.572Z,440.00
2023-03-19T08:29:01.621Z,434.00
2023-03-19T08:30:01.571Z,433.00
2023-03-19T08:31:01.679Z,435.00
2023-03-19T08:32:01.546Z,436.00
2023-03-19T08:33:01.626Z,436.00
2023-03-19T08:34:01.535Z,435.00
2023-03-19T08:35:01.526Z,433.00
2023-03-19T08:36:01.553Z,437.00
2023-03-19T08:37:01.489Z,437.00
2023-03-19T08:38:01.499Z,437.00
2023-03-19T08:39:01.501Z,437.00
2023-03-19T08:40:04.605Z,437.00
2023-03-19T08:41:01.466Z,434.00
2023-03-19T08:42:01.426Z,433.00
2023-03-19T08:43:01.436Z,430.00
2023-03-19T08:44:01.408Z,428.00
2023-03-19T08:45:01.407Z,430.00
2023-03-19T08:46:01.462Z,428.00
2023-03-19T08:47:01.374Z,429.00
2023-03-19T08:48:01.374Z,429.00
2023-03-19T08:49:01.360Z,430.00
2023-03-19T08:50:01.425Z,431.00
2023-03-19T08:51:01.361Z,432.00
2023-03-19T08:52:01.340Z,435.00
2023-03-19T08:53:01.325Z,432.00
2023-03-19T08:54:01.328Z,433.00
2023-03-19T08:55:01.336Z,433.00
2023-03-19T08:56:01.354Z,432.00
2023-03-19T08:57:01.334Z,431.00
2023-03-19T08:58:01.345Z,431.00
2023-03-19T08:59:01.300Z,432.00
2023-03-19T09:00:01.295Z,432.00
2023-03-19T09:01:01.608Z,435.00
2023-03-19T09:02:01.317Z,435.00
2023-03-19T09:03:01.290Z,433.00
2023-03-19T09:04:01.313Z,432.00
2023-03-19T09:05:01.316Z,434.00
2023-03-19T09:06:01.268Z,433.00
2023-03-19T09:07:01.237Z,431.00
2023-03-19T09:08:01.232Z,433.00
2023-03-19T09:09:01.211Z,431.00
2023-03-19T09:10:01.232Z,429.00
2023-03-19T09:11:01.285Z,430.00
2023-03-19T09:12:01.181Z,427.00
2023-03-19T09:13:01.206Z,427.00
2023-03-19T09:14:01.170Z,426.00
2023-03-19T09:15:01.157Z,427.00
2023-03-19T09:16:01.213Z,430.00
2023-03-19T09:17:01.187Z,430.00
2023-03-19T09:18:01.165Z,428.00
2023-03-19T09:19:01.109Z,428.00
2023-03-19T09:20:01.111Z,426.00
2023-03-19T09:21:01.063Z,424.00
2023-03-19T09:22:01.099Z,423.00
2023-03-19T09:23:01.026Z,424.00
2023-03-19T09:24:01.030Z,426.00
2023-03-19T09:25:01.123Z,425.00
2023-03-19T09:26:01.100Z,425.00
2023-03-19T09:27:01.003Z,425.00
2023-03-19T09:28:01.017Z,426.00
2023-03-19T09:29:00.987Z,425.00
2023-03-19T09:30:01.001Z,425.00
2023-03-19T09:31:00.973Z,427.00
2023-03-19T09:32:00.927Z,428.00
2023-03-19T09:33:00.997Z,431.00
2023-03-19T09:34:00.910Z,430.00
2023-03-19T09:35:01.019Z,430.00
2023-03-19T09:36:00.934Z,429.00
2023-03-19T09:37:00.915Z,427.00
2023-03-19T09:38:00.882Z,425.00
2023-03-19T09:39:00.909Z,424.00
2023-03-19T09:40:00.854Z,425.00
2023-03-19T09:41:00.826Z,428.00
2023-03-19T09:42:00.880Z,429.00
2023-03-19T09:43:00.811Z,429.00
2023-03-19T09:44:00.858Z,433.00
2023-03-19T09:45:00.752Z,434.00
2023-03-19T09:46:00.843Z,432.00
2023-03-19T09:47:00.787Z,431.00
2023-03-19T09:48:00.774Z,430.00
2023-03-19T09:49:00.701Z,431.00
2023-03-19T09:50:00.706Z,431.00
2023-03-19T09:51:00.699Z,432.00
2023-03-19T09:52:00.683Z,433.00
2023-03-19T09:53:00.634Z,432.00
2023-03-19T09:54:00.661Z,428.00
2023-03-19T09:55:00.608Z,427.00
2023-03-19T09:56:00.614Z,429.00
2023-03-19T09:57:00.573Z,431.00
2023-03-19T09:58:00.587Z,431.00
2023-03-19T09:59:00.585Z,437.00
2023-03-19T10:00:00.577Z,439.00
2023-03-19T10:01:00.558Z,440.00
2023-03-19T10:02:00.669Z,438.00
2023-03-19T10:03:02.688Z,436.00
2023-03-19T10:04:00.628Z,434.00
2023-03-19T10:05:00.541Z,436.00
2023-03-19T10:06:00.552Z,435.00
2023-03-19T10:07:00.514Z,433.00
2023-03-19T10:08:00.495Z,431.00
2023-03-19T10:09:00.566Z,432.00
2023-03-19T10:10:00.464Z,432.00
2023-03-19T10:11:00.482Z,433.00
2023-03-19T10:12:00.450Z,432.00
2023-03-19T10:13:00.441Z,433.00
2023-03-19T10:14:00.420Z,434.00
2023-03-19T10:15:00.442Z,435.00
2023-03-19T10:16:00.421Z,437.00
2023-03-19T10:17:00.392Z,445.00
2023-03-19T10:18:00.346Z,446.00
2023-03-19T10:19:00.572Z,445.00
2023-03-19T10:20:00.428Z,443.00
2023-03-19T10:21:00.326Z,442.00
2023-03-19T10:22:00.365Z,440.00
2023-03-19T10:23:00.261Z,437.00
2023-03-19T10:24:00.306Z,438.00
2023-03-19T10:25:00.299Z,438.00
2023-03-19T10:26:00.250Z,439.00
2023-03-19T10:27:00.217Z,438.00
2023-03-19T10:28:00.184Z,441.00
2023-03-19T10:29:00.247Z,438.00
2023-03-19T10:30:00.178Z,439.00
2023-03-19T10:31:02.536Z,437.00
2023-03-19T10:32:00.328Z,435.00
2023-03-19T10:33:00.416Z,439.00
2023-03-19T10:34:00.293Z,438.00
2023-03-19T10:35:00.229Z,436.00
2023-03-19T10:36:00.224Z,442.00
2023-03-19T10:37:00.220Z,441.00
2023-03-19T10:38:00.156Z,438.00
2023-03-19T10:39:00.135Z,436.00
2023-03-19T10:40:00.277Z,435.00
2023-03-19T10:41:00.116Z,434.00
2023-03-19T10:42:00.118Z,437.00
2023-03-19T10:43:00.112Z,436.00
2023-03-19T10:44:00.141Z,435.00
2023-03-19T10:45:00.105Z,436.00
2023-03-19T10:46:00.144Z,438.00
2023-03-19T10:47:00.040Z,439.00
2023-03-19T10:48:00.002Z,437.00
2023-03-19T10:48:59.989Z,436.00
2023-03-19T10:50:00.027Z,436.00
2023-03-19T10:50:59.964Z,434.00
2023-03-19T10:51:59.928Z,434.00
2023-03-19T10:52:59.914Z,436.00
2023-03-19T10:53:59.888Z,438.00
2023-03-19T10:54:59.872Z,437.00
2023-03-19T10:55:59.859Z,440.00
2023-03-19T10:56:59.864Z,439.00
2023-03-19T10:57:59.849Z,434.00
2023-03-19T10:58:59.890Z,435.00
2023-03-19T11:00:01.844Z,436.00
2023-03-19T11:00:59.828Z,436.00
2023-03-19T11:01:59.794Z,439.00
2023-03-19T11:02:59.768Z,440.00
2023-03-19T11:03:59.842Z,438.00
2023-03-19T11:04:59.749Z,438.00
2023-03-19T11:05:59.753Z,435.00
2023-03-19T11:06:59.723Z,433.00
2023-03-19T11:07:59.740Z,435.00
2023-03-19T11:08:59.689Z,434.00
2023-03-19T11:09:59.670Z,434.00
2023-03-19T11:10:59.659Z,437.00
2023-03-19T11:11:59.622Z,437.00
2023-03-19T11:12:59.597Z,439.00
2023-03-19T11:13:59.608Z,441.00
2023-03-19T11:14:59.539Z,444.00
2023-03-19T11:15:59.561Z,445.00
2023-03-19T11:16:59.605Z,445.00
2023-03-19T11:17:59.515Z,443.00
2023-03-19T11:18:59.539Z,442.00
2023-03-19T11:19:59.475Z,440.00
2023-03-19T11:20:59.475Z,438.00
2023-03-19T11:21:59.421Z,436.00
2023-03-19T11:22:59.389Z,433.00
2023-03-19T11:23:59.377Z,435.00
2023-03-19T11:24:59.366Z,437.00
2023-03-19T11:25:59.363Z,436.00
2023-03-19T11:26:59.728Z,436.00
2023-03-19T11:27:59.296Z,437.00
2023-03-19T11:28:59.278Z,436.00
2023-03-19T11:29:59.337Z,437.00
2023-03-19T11:30:59.262Z,437.00
2023-03-19T11:32:02.004Z,434.00
2023-03-19T11:33:00.261Z,438.00
2023-03-19T11:33:59.171Z,438.00
2023-03-19T11:34:59.136Z,440.00
2023-03-19T11:35:59.134Z,436.00
2023-03-19T11:36:59.202Z,434.00
2023-03-19T11:37:59.064Z,434.00
2023-03-19T11:38:59.051Z,431.00
2023-03-19T11:39:59.033Z,429.00
2023-03-19T11:40:59.000Z,429.00
2023-03-19T11:41:59.041Z,428.00
2023-03-19T11:42:58.994Z,429.00
2023-03-19T11:43:58.962Z,430.00
2023-03-19T11:44:59.028Z,433.00
2023-03-19T11:45:58.922Z,438.00
2023-03-19T11:46:58.939Z,437.00
2023-03-19T11:47:58.877Z,434.00
2023-03-19T11:48:58.836Z,435.00
2023-03-19T11:49:58.791Z,437.00
2023-03-19T11:50:58.765Z,438.00
2023-03-19T11:51:58.741Z,438.00
2023-03-19T11:52:58.790Z,442.00
2023-03-19T11:53:58.690Z,439.00
2023-03-19T11:54:58.681Z,437.00
2023-03-19T11:55:58.660Z,435.00
2023-03-19T11:56:58.707Z,432.00
2023-03-19T11:57:58.602Z,431.00
2023-03-19T11:58:58.563Z,432.00
2023-03-19T11:59:58.547Z,433.00
2023-03-19T12:00:58.529Z,432.00
2023-03-19T12:01:58.518Z,431.00
2023-03-19T12:02:58.469Z,432.00
2023-03-19T12:03:58.476Z,433.00
2023-03-19T12:04:58.421Z,430.00
2023-03-19T12:05:58.445Z,430.00
2023-03-19T12:06:58.410Z,430.00
2023-03-19T12:07:58.370Z,429.00
2023-03-19T12:08:58.363Z,428.00
2023-03-19T12:09:58.304Z,429.00
2023-03-19T12:10:58.277Z,429.00
2023-03-19T12:11:58.237Z,427.00
2023-03-19T12:12:58.226Z,425.00
2023-03-19T12:13:58.202Z,425.00
2023-03-19T12:14:58.145Z,426.00
2023-03-19T12:15:58.166Z,425.00
2023-03-19T12:16:58.210Z,427.00
2023-03-19T12:17:58.144Z,427.00
2023-03-19T12:18:58.079Z,428.00
2023-03-19T12:19:58.022Z,428.00
2023-03-19T12:20:58.085Z,429.00
2023-03-19T12:21:57.989Z,431.00
2023-03-19T12:22:57.997Z,433.00
2023-03-19T12:23:57.934Z,431.00
2023-03-19T12:24:57.944Z,432.00
2023-03-19T12:25:57.905Z,430.00
2023-03-19T12:26:57.867Z,433.00
2023-03-19T12:27:57.900Z,435.00